Time;durP1;ratioP1;P1;durP2;ratioP2;P2;SDS_P1;SDS_P2;PMS_P1;PMS_P2;Temp;Humidity;BMP_temperature;BMP_pressure;BME280_temperature;BME280_humidity;BME280_pressure;Samples;Min_cycle;Max_cycle;Signal;HPM_P1;HPM_P2
2022/12/14 00:02:20;;;;;;;;;;;;;;;;;;5095698;28;19920;-90
2022/12/14 00:04:46;;;;;;;;;;;;;;;;;;5078807;28;19931;-90
2022/12/14 00:07:11;;;;;;;;;;;;;;;;;;5078793;28;20395;-90
2022/12/14 00:09:37;;;;;;;;;;;;;;;;;;5078184;28;19928;-90
2022/12/14 00:12:03;;;;;;;;;;;;;;;;;;5079151;28;20378;-90
2022/12/14 00:14:29;;;;;;;;;;;;;;;;;;5090516;28;19927;-90
2022/12/14 00:16:55;;;;;;;;;;;;;;;;;;5098906;28;19931;-90
2022/12/14 00:19:21;;;;;;;;;;;;;;;;;;5098433;28;20383;-89
2022/12/14 00:21:47;;;;;;;;;;;;;;;;;;5116025;28;19920;-90
2022/12/14 00:24:13;;;;;;;;;;;;;;;;;;5099155;27;19930;-90
2022/12/14 00:26:39;;;;;;;;;;;;;;;;;;5102972;27;20299;-90
2022/12/14 00:29:05;;;;;;;;;;;;;;;;;;5082840;28;20365;-89
2022/12/14 00:31:31;;;;;;;;;;;;;;;;;;5082891;28;19920;-89
2022/12/14 00:33:56;;;;;;;;;;;;;;;;;;5082488;28;19920;-89
2022/12/14 00:36:22;;;;;;;;;;;;;;;;;;5082548;28;19920;-90
2022/12/14 00:38:48;;;;;;;;;;;;;;;;;;5082163;28;19919;-90
2022/12/14 00:41:14;;;;;;;;;;;;;;;;;;5082284;28;19919;-90
2022/12/14 00:43:40;;;;;;;;;;;;;;;;;;5082332;28;19923;-90
2022/12/14 00:46:06;;;;;;;;;;;;;;;;;;5082442;28;19919;-89
2022/12/14 00:48:32;;;;;;;;;;;;;;;;;;5082476;28;20300;-90
2022/12/14 00:50:58;;;;;;;;;;;;;;;;;;5115741;28;19924;-89
2022/12/14 00:53:24;;;;;;;;;;;;;;;;;;5082178;28;19973;-90
2022/12/14 00:55:50;;;;;;;;;;;;;;;;;;5082309;28;19919;-90
2022/12/14 00:58:16;;;;;;;;;;;;;;;;;;5082474;28;20326;-90
2022/12/14 01:00:43;;;;;;;;;;;;;;;;;;5081903;28;19926;-90
2022/12/14 01:03:09;;;;;;;;;;;;;;;;;;5082063;28;19924;-89
2022/12/14 01:05:35;;;;;;;;;;;;;;;;;;5082041;28;19927;-90
2022/12/14 01:08:00;;;;;;;;;;;;;;;;;;5115739;28;20574;-89
2022/12/14 01:10:26;;;;;;;;;;;;;;;;;;5081457;28;19990;-90
2022/12/14 01:12:52;;;;;;;;;;;;;;;;;;5115750;28;19965;-90
2022/12/14 01:15:18;;;;;;;;;;;;;;;;;;5081737;28;20373;-89
2022/12/14 01:17:44;;;;;;;;;;;;;;;;;;5081704;28;19920;-90
2022/12/14 01:20:10;;;;;;;;;;;;;;;;;;5081551;28;20280;-90
2022/12/14 01:22:36;;;;;;;;;;;;;;;;;;5081731;28;19927;-89
2022/12/14 01:25:02;;;;;;;;;;;;;;;;;;5081714;28;19963;-89
2022/12/14 01:27:28;;;;;;;;;;;;;;;;;;5115521;28;20387;-89
2022/12/14 01:29:54;;;;;;;;;;;;;;;;;;5081114;28;19920;-90
2022/12/14 01:32:19;;;;;;;;;;;;;;;;;;5081523;28;20379;-89
2022/12/14 01:34:45;;;;;;;;;;;;;;;;;;5081438;28;20378;-89
2022/12/14 01:37:11;;;;;;;;;;;;;;;;;;5081008;28;20556;-90
2022/12/14 01:39:37;;;;;;;;;;;;;;;;;;5080828;28;19923;-88
2022/12/14 01:42:03;;;;;;;;;;;;;;;;;;5081361;28;19920;-89
2022/12/14 01:44:29;;;;;;;;;;;;;;;;;;5081184;28;19946;-89
2022/12/14 01:46:55;;;;;;;;;;;;;;;;;;5081343;28;19920;-89
2022/12/14 01:49:21;;;;;;;;;;;;;;;;;;5114643;28;20360;-89
2022/12/14 01:51:47;;;;;;;;;;;;;;;;;;5115080;28;19923;-89
2022/12/14 01:54:13;;;;;;;;;;;;;;;;;;5080978;28;19927;-89
2022/12/14 01:56:38;;;;;;;;;;;;;;;;;;5114873;28;19919;-89
2022/12/14 01:59:04;;;;;;;;;;;;;;;;;;5080417;28;19927;-89
2022/12/14 02:01:31;;;;;;;;;;;;;;;;;;5080908;28;19926;-89
2022/12/14 02:03:56;;;;;;;;;;;;;;;;;;5097513;28;20405;-90
2022/12/14 02:06:22;;;;;;;;;;;;;;;;;;5080969;28;19920;-89
2022/12/14 02:08:48;;;;;;;;;;;;;;;;;;5080519;28;19919;-89
2022/12/14 02:11:14;;;;;;;;;;;;;;;;;;5080703;28;19966;-89
2022/12/14 02:13:40;;;;;;;;;;;;;;;;;;5080805;28;20014;-89
2022/12/14 02:16:06;;;;;;;;;;;;;;;;;;5080661;28;20372;-89
2022/12/14 02:18:32;;;;;;;;;;;;;;;;;;5080613;28;19920;-90
2022/12/14 02:20:58;;;;;;;;;;;;;;;;;;5079971;28;19969;-89
2022/12/14 02:23:24;;;;;;;;;;;;;;;;;;5080492;28;19976;-90
2022/12/14 02:25:50;;;;;;;;;;;;;;;;;;5074772;28;20294;-89
2022/12/14 02:28:15;;;;;;;;;;;;;;;;;;5060749;28;19920;-90
2022/12/14 02:30:42;;;;;;;;;;;;;;;;;;5076576;28;19927;-89
2022/12/14 02:33:07;;;;;;;;;;;;;;;;;;5060201;28;20023;-89
2022/12/14 02:35:34;;;;;;;;;;;;;;;;;;5076728;28;20002;-89
2022/12/14 02:37:59;;;;;;;;;;;;;;;;;;5060181;28;19920;-89
2022/12/14 02:40:25;;;;;;;;;;;;;;;;;;5059769;28;19927;-89
2022/12/14 02:42:51;;;;;;;;;;;;;;;;;;5060096;28;19974;-89
2022/12/14 02:45:17;;;;;;;;;;;;;;;;;;5059937;28;19928;-89
2022/12/14 02:47:43;;;;;;;;;;;;;;;;;;5059139;28;19969;-89
2022/12/14 02:50:09;;;;;;;;;;;;;;;;;;5059555;28;20597;-89
2022/12/14 02:52:35;;;;;;;;;;;;;;;;;;5059816;28;19920;-89
2022/12/14 02:55:01;;;;;;;;;;;;;;;;;;5059946;28;20336;-89
2022/12/14 02:57:27;;;;;;;;;;;;;;;;;;5076343;28;20011;-89
2022/12/14 02:59:53;;;;;;;;;;;;;;;;;;5059384;28;19920;-89
2022/12/14 03:02:19;;;;;;;;;;;;;;;;;;5076373;28;19985;-89
2022/12/14 03:04:46;;;;;;;;;;;;;;;;;;5076301;28;19931;-90
2022/12/14 03:07:12;;;;;;;;;;;;;;;;;;5059555;28;19920;-89
2022/12/14 03:09:38;;;;;;;;;;;;;;;;;;5076023;28;20339;-89
2022/12/14 03:12:03;;;;;;;;;;;;;;;;;;5059872;28;19927;-89
2022/12/14 03:14:30;;;;;;;;;;;;;;;;;;5076122;28;19928;-89
2022/12/14 03:16:56;;;;;;;;;;;;;;;;;;5059336;28;19942;-89
2022/12/14 03:19:22;;;;;;;;;;;;;;;;;;5059152;28;20368;-89
2022/12/14 03:21:48;;;;;;;;;;;;;;;;;;5059570;28;19924;-89
2022/12/14 03:24:13;;;;;;;;;;;;;;;;;;5059314;28;19931;-89
2022/12/14 03:26:39;;;;;;;;;;;;;;;;;;5059190;28;19929;-89
2022/12/14 03:29:05;;;;;;;;;;;;;;;;;;5075365;28;19950;-89
2022/12/14 03:31:31;;;;;;;;;;;;;;;;;;5059336;28;19923;-89
2022/12/14 03:33:57;;;;;;;;;;;;;;;;;;5059442;28;20305;-89
2022/12/14 03:36:23;;;;;;;;;;;;;;;;;;5059304;28;19967;-89
2022/12/14 03:38:49;;;;;;;;;;;;;;;;;;5075428;28;20011;-89
2022/12/14 03:41:15;;;;;;;;;;;;;;;;;;5068864;28;20419;-89
2022/12/14 03:43:41;;;;;;;;;;;;;;;;;;5079083;28;20014;-89
2022/12/14 03:46:07;;;;;;;;;;;;;;;;;;5112962;28;19920;-89
2022/12/14 03:48:33;;;;;;;;;;;;;;;;;;5079177;28;19920;-89
2022/12/14 03:50:59;;;;;;;;;;;;;;;;;;5078644;28;19920;-89
2022/12/14 03:53:25;;;;;;;;;;;;;;;;;;5112719;28;19920;-89
2022/12/14 03:55:50;;;;;;;;;;;;;;;;;;5079117;28;20396;-89
2022/12/14 03:58:16;;;;;;;;;;;;;;;;;;5079082;28;20015;-89
2022/12/14 04:00:42;;;;;;;;;;;;;;;;;;5112364;28;19926;-89
2022/12/14 04:03:08;;;;;;;;;;;;;;;;;;5112553;28;19930;-89
2022/12/14 04:05:34;;;;;;;;;;;;;;;;;;5078779;28;19920;-89
2022/12/14 04:08:00;;;;;;;;;;;;;;;;;;5079178;28;20360;-89
2022/12/14 04:18:55;;;;;;;;;;;;;;;;;;5095545;28;19924;-89
2022/12/14 04:21:21;;;;;;;;;;;;;;;;;;5112715;28;19920;-89
2022/12/14 04:26:32;;;;;;;;;;;;;;;;;;5095458;28;19977;-88
2022/12/14 04:29:55;;;;;;;;;;;;;;;;;;5111929;28;19923;-89
2022/12/14 04:31:44;;;;;;;;;;;;;;;;;;5095363;28;20429;-89
2022/12/14 04:34:10;;;;;;;;;;;;;;;;;;5078548;28;19920;-89
2022/12/14 04:36:36;;;;;;;;;;;;;;;;;;5112379;28;19919;-89
2022/12/14 04:39:01;;;;;;;;;;;;;;;;;;5111769;28;20392;-89
2022/12/14 04:41:27;;;;;;;;;;;;;;;;;;5078341;28;19924;-89
2022/12/14 04:43:53;;;;;;;;;;;;;;;;;;5078403;28;19923;-89
2022/12/14 04:46:19;;;;;;;;;;;;;;;;;;5078816;28;20369;-89
2022/12/14 04:48:45;;;;;;;;;;;;;;;;;;5078520;28;19930;-89
2022/12/14 04:51:11;;;;;;;;;;;;;;;;;;5078184;28;19920;-89
2022/12/14 04:53:37;;;;;;;;;;;;;;;;;;5078200;28;19920;-89
2022/12/14 04:56:03;;;;;;;;;;;;;;;;;;5078457;28;19920;-89
2022/12/14 04:58:29;;;;;;;;;;;;;;;;;;5078161;28;19920;-89
2022/12/14 05:00:55;;;;;;;;;;;;;;;;;;5077840;28;19919;-89
2022/12/14 05:03:20;;;;;;;;;;;;;;;;;;5072495;28;19924;-89
2022/12/14 05:05:46;;;;;;;;;;;;;;;;;;5090502;28;19946;-89
2022/12/14 05:08:12;;;;;;;;;;;;;;;;;;5111598;28;19926;-88
2022/12/14 05:10:38;;;;;;;;;;;;;;;;;;5077980;28;19923;-89
2022/12/14 05:13:04;;;;;;;;;;;;;;;;;;5081560;28;20283;-89
2022/12/14 05:15:30;;;;;;;;;;;;;;;;;;5115275;28;19924;-89
2022/12/14 05:17:56;;;;;;;;;;;;;;;;;;5081047;28;19924;-89
2022/12/14 05:20:22;;;;;;;;;;;;;;;;;;5080618;28;19927;-89
2022/12/14 05:22:48;;;;;;;;;;;;;;;;;;5076600;28;19928;-89
2022/12/14 05:25:14;;;;;;;;;;;;;;;;;;5064403;28;19923;-89
2022/12/14 05:27:40;;;;;;;;;;;;;;;;;;5078254;28;20324;-89
2022/12/14 05:30:06;;;;;;;;;;;;;;;;;;5077229;28;19924;-89
2022/12/14 05:32:32;;;;;;;;;;;;;;;;;;5060777;28;20296;-88
2022/12/14 05:34:58;;;;;;;;;;;;;;;;;;5077525;28;20010;-89
2022/12/14 05:37:24;;;;;;;;;;;;;;;;;;5077512;28;19924;-89
2022/12/14 05:39:50;;;;;;;;;;;;;;;;;;5060069;28;19927;-89
2022/12/14 05:42:15;;;;;;;;;;;;;;;;;;5060603;28;19920;-89
2022/12/14 05:44:41;;;;;;;;;;;;;;;;;;5077426;28;20377;-89
2022/12/14 05:47:07;;;;;;;;;;;;;;;;;;5088836;28;19963;-89
2022/12/14 05:49:33;;;;;;;;;;;;;;;;;;5076629;28;19951;-89
2022/12/14 05:51:59;;;;;;;;;;;;;;;;;;5060424;28;20010;-89
2022/12/14 05:54:25;;;;;;;;;;;;;;;;;;5060471;28;19927;-89
2022/12/14 05:56:51;;;;;;;;;;;;;;;;;;5060245;28;19969;-89
2022/12/14 05:59:17;;;;;;;;;;;;;;;;;;5059898;28;19920;-89
2022/12/14 06:01:43;;;;;;;;;;;;;;;;;;5076820;28;19968;-89
2022/12/14 06:04:09;;;;;;;;;;;;;;;;;;5076930;28;19971;-89
2022/12/14 06:06:35;;;;;;;;;;;;;;;;;;5060140;28;19920;-89
2022/12/14 06:09:01;;;;;;;;;;;;;;;;;;5076520;28;20490;-89
2022/12/14 06:11:27;;;;;;;;;;;;;;;;;;5061958;28;19920;-89
2022/12/14 06:13:53;;;;;;;;;;;;;;;;;;5080090;28;19927;-89
2022/12/14 06:16:18;;;;;;;;;;;;;;;;;;5080069;28;19919;-88
2022/12/14 06:18:44;;;;;;;;;;;;;;;;;;5079179;28;19924;-88
2022/12/14 06:21:10;;;;;;;;;;;;;;;;;;5059338;28;20289;-88
2022/12/14 06:23:36;;;;;;;;;;;;;;;;;;5059716;28;20292;-89
2022/12/14 06:26:02;;;;;;;;;;;;;;;;;;5059850;28;19920;-89
2022/12/14 06:28:28;;;;;;;;;;;;;;;;;;5059543;28;19924;-89
2022/12/14 06:30:54;;;;;;;;;;;;;;;;;;5059257;28;19927;-89
2022/12/14 06:33:20;;;;;;;;;;;;;;;;;;5086042;28;19919;-89
2022/12/14 06:35:46;;;;;;;;;;;;;;;;;;5066156;28;20398;-89
2022/12/14 06:38:12;;;;;;;;;;;;;;;;;;5076228;28;19921;-88
2022/12/14 06:40:38;;;;;;;;;;;;;;;;;;5075679;28;20442;-89
2022/12/14 06:43:04;;;;;;;;;;;;;;;;;;5076125;28;19928;-89
2022/12/14 06:45:30;;;;;;;;;;;;;;;;;;5076564;28;19931;-89
2022/12/14 06:47:57;;;;;;;;;;;;;;;;;;5076172;28;20403;-89
2022/12/14 06:50:23;;;;;;;;;;;;;;;;;;5075495;28;19924;-89
2022/12/14 06:52:49;;;;;;;;;;;;;;;;;;5075910;28;20391;-88
2022/12/14 06:55:14;;;;;;;;;;;;;;;;;;5075885;28;19920;-89
2022/12/14 06:57:40;;;;;;;;;;;;;;;;;;5079048;28;20445;-88
2022/12/14 07:00:06;;;;;;;;;;;;;;;;;;5074378;28;19924;-89
2022/12/14 07:02:32;;;;;;;;;;;;;;;;;;5079027;28;19919;-88
2022/12/14 07:04:58;;;;;;;;;;;;;;;;;;5078991;28;19935;-88
2022/12/14 07:07:24;;;;;;;;;;;;;;;;;;5112877;28;19931;-89
2022/12/14 07:09:50;;;;;;;;;;;;;;;;;;5078592;28;19920;-88
2022/12/14 07:12:16;;;;;;;;;;;;;;;;;;5112263;28;19920;-88
2022/12/14 07:14:42;;;;;;;;;;;;;;;;;;5078402;28;19938;-89
2022/12/14 07:17:07;;;;;;;;;;;;;;;;;;5112432;28;19967;-89
2022/12/14 07:19:33;;;;;;;;;;;;;;;;;;5077758;28;19919;-88
2022/12/14 07:22:03;;;;;;;;;;;;;;;;;;5078556;28;19920;-89
2022/12/14 07:24:28;;;;;;;;;;;;;;;;;;5095028;28;20307;-89
2022/12/14 07:26:55;;;;;;;;;;;;;;;;;;5078286;28;20006;-89
2022/12/14 07:29:21;;;;;;;;;;;;;;;;;;5094660;28;19968;-89
2022/12/14 07:31:47;;;;;;;;;;;;;;;;;;5095098;28;19920;-89
2022/12/14 07:34:13;;;;;;;;;;;;;;;;;;5077257;28;20275;-89
2022/12/14 07:36:39;;;;;;;;;;;;;;;;;;5094758;28;19931;-89
2022/12/14 07:39:16;;;;;;;;;;;;;;;;;;5073958;28;19924;-90
2022/12/14 07:41:42;;;;;;;;;;;;;;;;;;5077879;28;19973;-90
2022/12/14 07:44:08;;;;;;;;;;;;;;;;;;5068710;28;20008;-89
2022/12/14 07:46:34;;;;;;;;;;;;;;;;;;5088623;28;20318;-88
2022/12/14 07:49:00;;;;;;;;;;;;;;;;;;5067065;28;19923;-89
2022/12/14 07:51:26;;;;;;;;;;;;;;;;;;5072558;28;19942;-89
2022/12/14 07:53:52;;;;;;;;;;;;;;;;;;5062462;28;19920;-87
2022/12/14 07:56:18;;;;;;;;;;;;;;;;;;5077604;28;19928;-87
2022/12/14 07:58:43;;;;;;;;;;;;;;;;;;5077959;28;19983;-88
2022/12/14 08:01:10;;;;;;;;;;;;;;;;;;5077476;28;19927;-87
2022/12/14 08:06:39;;;;;;;;;;;;;;;;;;5099090;28;19956;-88
2022/12/14 08:09:05;;;;;;;;;;;;;;;;;;5084094;28;19931;-88
2022/12/14 08:11:31;;;;;;;;;;;;;;;;;;5074114;28;19920;-89
2022/12/14 08:13:57;;;;;;;;;;;;;;;;;;5057353;28;20019;-87
2022/12/14 08:16:23;;;;;;;;;;;;;;;;;;5073864;28;20385;-88
2022/12/14 08:18:49;;;;;;;;;;;;;;;;;;5056957;28;19920;-88
2022/12/14 08:21:17;;;;;;;;;;;;;;;;;;5057442;28;19943;-87
2022/12/14 08:23:43;;;;;;;;;;;;;;;;;;5057432;28;20339;-87
2022/12/14 08:26:09;;;;;;;;;;;;;;;;;;5057447;28;19924;-90
2022/12/14 08:28:35;;;;;;;;;;;;;;;;;;5057339;28;19924;-89
2022/12/14 08:31:01;;;;;;;;;;;;;;;;;;5056699;28;20010;-88
2022/12/14 08:33:27;;;;;;;;;;;;;;;;;;5057838;28;20011;-88
2022/12/14 08:35:53;;;;;;;;;;;;;;;;;;5092192;28;19932;-89
2022/12/14 08:38:18;;;;;;;;;;;;;;;;;;5077401;28;20032;-90
2022/12/14 08:40:44;;;;;;;;;;;;;;;;;;5058807;28;19965;-89
2022/12/14 08:43:11;;;;;;;;;;;;;;;;;;5074060;28;19924;-89
2022/12/14 08:45:36;;;;;;;;;;;;;;;;;;5080100;28;20399;-92
2022/12/14 08:48:02;;;;;;;;;;;;;;;;;;5081683;28;19920;-88
2022/12/14 08:50:28;;;;;;;;;;;;;;;;;;5080580;28;19932;-88
2022/12/14 08:52:54;;;;;;;;;;;;;;;;;;5069387;28;20001;-89
2022/12/14 08:55:20;;;;;;;;;;;;;;;;;;5061018;28;19955;-89
2022/12/14 08:57:46;;;;;;;;;;;;;;;;;;5075294;28;20015;-86
2022/12/14 09:00:12;;;;;;;;;;;;;;;;;;5062331;28;19955;-87
2022/12/14 09:02:38;;;;;;;;;;;;;;;;;;5060543;28;19928;-88
2022/12/14 09:05:04;;;;;;;;;;;;;;;;;;5081752;28;19957;-88
2022/12/14 09:07:30;;;;;;;;;;;;;;;;;;5080339;28;19973;-89
2022/12/14 09:09:56;;;;;;;;;;;;;;;;;;5067219;28;19920;-87
2022/12/14 09:12:22;;;;;;;;;;;;;;;;;;5093880;28;19921;-88
2022/12/14 09:14:48;;;;;;;;;;;;;;;;;;5094204;28;19928;-87
2022/12/14 09:17:14;;;;;;;;;;;;;;;;;;5093863;28;20003;-88
2022/12/14 09:19:40;;;;;;;;;;;;;;;;;;5107075;27;19964;-88
2022/12/14 09:22:06;;;;;;;;;;;;;;;;;;5069978;28;20305;-88
2022/12/14 09:24:32;;;;;;;;;;;;;;;;;;5068407;28;19928;-88
2022/12/14 09:26:59;;;;;;;;;;;;;;;;;;5077148;28;19985;-88
2022/12/14 09:29:25;;;;;;;;;;;;;;;;;;5059671;28;19965;-88
2022/12/14 09:31:51;;;;;;;;;;;;;;;;;;5076779;28;20283;-87
2022/12/14 09:34:17;;;;;;;;;;;;;;;;;;5076573;28;19920;-88
2022/12/14 09:36:43;;;;;;;;;;;;;;;;;;5076915;28;19921;-88
2022/12/14 09:39:13;;;;;;;;;;;;;;;;;;5096526;28;19967;-88
2022/12/14 09:41:39;;;;;;;;;;;;;;;;;;5062063;28;20446;-89
2022/12/14 09:44:05;;;;;;;;;;;;;;;;;;5060740;28;19928;-88
2022/12/14 09:46:31;;;;;;;;;;;;;;;;;;5069765;28;19969;-88
2022/12/14 09:48:57;;;;;;;;;;;;;;;;;;5067293;28;19962;-90
2022/12/14 09:51:23;;;;;;;;;;;;;;;;;;5060023;28;19920;-89
2022/12/14 09:53:49;;;;;;;;;;;;;;;;;;5071071;28;19943;-88
2022/12/14 09:56:16;;;;;;;;;;;;;;;;;;5096328;28;20068;-88
2022/12/14 09:58:42;;;;;;;;;;;;;;;;;;5097021;28;19963;-88
2022/12/14 10:01:23;;;;;;;;;;;;;;;;;;5096390;28;20047;-88
2022/12/14 10:03:49;;;;;;;;;;;;;;;;;;5079868;28;20014;-88
2022/12/14 10:06:15;;;;;;;;;;;;;;;;;;5073023;28;19947;-88
2022/12/14 10:08:41;;;;;;;;;;;;;;;;;;5061658;28;19927;-88
2022/12/14 10:11:07;;;;;;;;;;;;;;;;;;5061124;28;20369;-88
2022/12/14 10:13:33;;;;;;;;;;;;;;;;;;5075887;28;19966;-88
2022/12/14 10:16:07;;;;;;;;;;;;;;;;;;5059547;28;19920;-88
2022/12/14 10:18:33;;;;;;;;;;;;;;;;;;5076048;28;19926;-92
2022/12/14 10:20:59;;;;;;;;;;;;;;;;;;5059055;28;19920;-89
2022/12/14 10:23:25;;;;;;;;;;;;;;;;;;5088430;28;20376;-89
2022/12/14 10:25:51;;;;;;;;;;;;;;;;;;5096110;28;19928;-89
2022/12/14 10:28:17;;;;;;;;;;;;;;;;;;5112975;28;20033;-89
2022/12/14 10:30:43;;;;;;;;;;;;;;;;;;5112759;28;20441;-88
2022/12/14 10:33:08;;;;;;;;;;;;;;;;;;5074840;28;20039;-87
2022/12/14 10:35:34;;;;;;;;;;;;;;;;;;5065643;28;19920;-88
2022/12/14 10:38:01;;;;;;;;;;;;;;;;;;5059026;28;20433;-88
2022/12/14 10:40:27;;;;;;;;;;;;;;;;;;5058616;28;20022;-88
2022/12/14 10:42:53;;;;;;;;;;;;;;;;;;5110931;28;19970;-87
2022/12/14 10:45:19;;;;;;;;;;;;;;;;;;5095595;28;19924;-88
2022/12/14 10:47:48;;;;;;;;;;;;;;;;;;5112632;28;20388;-89
2022/12/14 10:50:14;;;;;;;;;;;;;;;;;;5078669;28;20015;-89
2022/12/14 10:52:40;;;;;;;;;;;;;;;;;;5078968;28;19971;-88
2022/12/14 10:55:06;;;;;;;;;;;;;;;;;;5076410;28;19920;-90
2022/12/14 10:57:32;;;;;;;;;;;;;;;;;;5085133;28;20725;-90
2022/12/14 10:59:58;;;;;;;;;;;;;;;;;;5058830;28;19977;-94
2022/12/14 11:02:24;;;;;;;;;;;;;;;;;;5064176;28;19924;-91
2022/12/14 11:04:50;;;;;;;;;;;;;;;;;;5079400;28;20265;-93
2022/12/14 11:07:15;;;;;;;;;;;;;;;;;;5072164;28;19920;-93
2022/12/14 11:09:41;;;;;;;;;;;;;;;;;;5059200;28;19920;-93
2022/12/14 11:12:07;;;;;;;;;;;;;;;;;;5079266;28;19972;-92
2022/12/14 11:14:33;;;;;;;;;;;;;;;;;;5064937;28;19990;-90
2022/12/14 11:16:59;;;;;;;;;;;;;;;;;;5061166;28;20002;-91
2022/12/14 11:19:26;;;;;;;;;;;;;;;;;;5073625;28;19934;-90
2022/12/14 11:21:52;;;;;;;;;;;;;;;;;;5094853;28;19919;-90
2022/12/14 11:24:18;;;;;;;;;;;;;;;;;;5074656;28;20015;-91
2022/12/14 11:26:44;;;;;;;;;;;;;;;;;;5058373;28;20023;-90
2022/12/14 11:29:10;;;;;;;;;;;;;;;;;;5057812;28;20383;-90
2022/12/14 11:31:36;;;;;;;;;;;;;;;;;;5094005;28;19926;-91
2022/12/14 11:34:02;;;;;;;;;;;;;;;;;;5077976;28;19970;-91
2022/12/14 11:36:27;;;;;;;;;;;;;;;;;;5077791;28;20355;-90
2022/12/14 11:38:53;;;;;;;;;;;;;;;;;;5094435;28;19920;-91
2022/12/14 11:41:19;;;;;;;;;;;;;;;;;;5094901;28;20010;-91
2022/12/14 11:43:45;;;;;;;;;;;;;;;;;;5065932;28;19931;-91
2022/12/14 11:46:11;;;;;;;;;;;;;;;;;;5091287;28;20292;-90
2022/12/14 11:48:38;;;;;;;;;;;;;;;;;;5074400;28;19924;-90
2022/12/14 11:51:04;;;;;;;;;;;;;;;;;;5074375;28;19972;-91
2022/12/14 11:53:29;;;;;;;;;;;;;;;;;;5074868;28;20003;-90
2022/12/14 11:55:55;;;;;;;;;;;;;;;;;;5087179;28;19984;-91
2022/12/14 11:58:21;;;;;;;;;;;;;;;;;;5111492;28;19920;-91
2022/12/14 12:00:47;;;;;;;;;;;;;;;;;;5077339;28;19924;-91
2022/12/14 12:03:13;;;;;;;;;;;;;;;;;;5057597;28;19924;-91
2022/12/14 12:05:39;;;;;;;;;;;;;;;;;;5074196;28;19920;-91
2022/12/14 12:08:06;;;;;;;;;;;;;;;;;;5089433;28;19963;-90
2022/12/14 12:10:46;;;;;;;;;;;;;;;;;;5073716;28;19920;-92
2022/12/14 12:13:12;;;;;;;;;;;;;;;;;;5061371;28;19926;-93
2022/12/14 12:15:38;;;;;;;;;;;;;;;;;;5078378;28;20010;-92
2022/12/14 12:18:04;;;;;;;;;;;;;;;;;;5078028;28;19930;-91
2022/12/14 12:20:30;;;;;;;;;;;;;;;;;;5071269;28;19988;-91
2022/12/14 12:22:56;;;;;;;;;;;;;;;;;;5078989;28;20335;-93
2022/12/14 12:25:22;;;;;;;;;;;;;;;;;;5061845;28;19923;-92
2022/12/14 12:27:48;;;;;;;;;;;;;;;;;;5095892;28;19924;-90
2022/12/14 12:30:14;;;;;;;;;;;;;;;;;;5094258;28;19927;-91
2022/12/14 12:32:40;;;;;;;;;;;;;;;;;;5078034;28;19920;-89
2022/12/14 12:35:06;;;;;;;;;;;;;;;;;;5061304;28;19969;-90
2022/12/14 12:37:32;;;;;;;;;;;;;;;;;;5061467;28;19920;-90
2022/12/14 12:39:58;;;;;;;;;;;;;;;;;;5078730;28;19923;-90
2022/12/14 12:42:24;;;;;;;;;;;;;;;;;;5081165;28;20398;-87
2022/12/14 12:44:50;;;;;;;;;;;;;;;;;;5080888;28;19936;-91
2022/12/14 12:47:16;;;;;;;;;;;;;;;;;;5078250;28;19931;-91
2022/12/14 12:49:42;;;;;;;;;;;;;;;;;;5073885;28;19980;-90
2022/12/14 12:52:08;;;;;;;;;;;;;;;;;;5078239;28;19924;-92
2022/12/14 12:54:34;;;;;;;;;;;;;;;;;;5071437;28;19985;-91
2022/12/14 12:57:00;;;;;;;;;;;;;;;;;;5061654;28;20003;-90
2022/12/14 12:59:26;;;;;;;;;;;;;;;;;;5080779;28;19919;-91
2022/12/14 13:01:52;;;;;;;;;;;;;;;;;;5081379;28;20056;-91
2022/12/14 13:04:18;;;;;;;;;;;;;;;;;;5081247;28;19999;-91
2022/12/14 13:06:44;;;;;;;;;;;;;;;;;;5081546;28;20007;-91
2022/12/14 13:09:10;;;;;;;;;;;;;;;;;;5077376;28;20011;-92
2022/12/14 13:11:36;;;;;;;;;;;;;;;;;;5061265;28;20387;-91
2022/12/14 13:14:02;;;;;;;;;;;;;;;;;;5060962;28;20002;-90
2022/12/14 13:16:28;;;;;;;;;;;;;;;;;;5098167;28;20360;-91
2022/12/14 13:18:54;;;;;;;;;;;;;;;;;;5071602;28;20019;-91
2022/12/14 13:21:37;;;;;;;;;;;;;;;;;;5093036;28;19933;-91
2022/12/14 13:24:03;;;;;;;;;;;;;;;;;;5097286;28;19967;-88
2022/12/14 13:26:32;;;;;;;;;;;;;;;;;;5062371;28;20015;-90
2022/12/14 13:28:58;;;;;;;;;;;;;;;;;;5060736;28;19920;-91
2022/12/14 13:31:24;;;;;;;;;;;;;;;;;;5060123;28;19921;-91
2022/12/14 13:33:50;;;;;;;;;;;;;;;;;;5060778;28;19924;-91
2022/12/14 13:36:16;;;;;;;;;;;;;;;;;;5059885;28;20437;-91
2022/12/14 13:38:42;;;;;;;;;;;;;;;;;;5060063;28;20019;-91
2022/12/14 13:41:08;;;;;;;;;;;;;;;;;;5062994;28;19957;-92
2022/12/14 13:43:34;;;;;;;;;;;;;;;;;;5069515;28;19932;-91
2022/12/14 13:46:00;;;;;;;;;;;;;;;;;;5060058;28;20381;-91
2022/12/14 13:48:26;;;;;;;;;;;;;;;;;;5060065;28;19924;-90
2022/12/14 13:50:52;;;;;;;;;;;;;;;;;;5059781;28;19920;-90
2022/12/14 13:53:18;;;;;;;;;;;;;;;;;;5059785;28;19985;-90
2022/12/14 13:55:44;;;;;;;;;;;;;;;;;;5059866;28;19920;-91
2022/12/14 13:58:10;;;;;;;;;;;;;;;;;;5060201;28;20432;-90
2022/12/14 14:00:35;;;;;;;;;;;;;;;;;;5076359;28;19920;-91
2022/12/14 14:03:01;;;;;;;;;;;;;;;;;;5075966;28;20364;-90
2022/12/14 14:05:27;;;;;;;;;;;;;;;;;;5074191;28;19966;-90
2022/12/14 14:07:53;;;;;;;;;;;;;;;;;;5062237;28;19927;-91
2022/12/14 14:10:19;;;;;;;;;;;;;;;;;;5068475;28;20010;-90
2022/12/14 14:12:45;;;;;;;;;;;;;;;;;;5080038;28;19919;-91
2022/12/14 14:15:11;;;;;;;;;;;;;;;;;;5076654;28;19927;-90
2022/12/14 14:17:37;;;;;;;;;;;;;;;;;;5060133;28;19924;-89
2022/12/14 14:20:03;;;;;;;;;;;;;;;;;;5092945;28;20362;-91
2022/12/14 14:22:29;;;;;;;;;;;;;;;;;;5076627;28;20062;-91
2022/12/14 14:24:55;;;;;;;;;;;;;;;;;;5076594;28;19965;-91
2022/12/14 14:27:22;;;;;;;;;;;;;;;;;;5059695;28;19920;-91
2022/12/14 14:29:48;;;;;;;;;;;;;;;;;;5072038;28;20291;-90
2022/12/14 14:32:14;;;;;;;;;;;;;;;;;;5059779;28;19931;-91
2022/12/14 14:34:40;;;;;;;;;;;;;;;;;;5059536;28;19920;-91
2022/12/14 14:37:06;;;;;;;;;;;;;;;;;;5059673;28;20382;-91
2022/12/14 14:39:32;;;;;;;;;;;;;;;;;;5059368;28;19926;-91
2022/12/14 14:41:58;;;;;;;;;;;;;;;;;;5059519;28;19920;-90
2022/12/14 14:44:24;;;;;;;;;;;;;;;;;;5058645;28;19990;-90
2022/12/14 14:46:50;;;;;;;;;;;;;;;;;;5059635;28;19920;-91
2022/12/14 14:49:16;;;;;;;;;;;;;;;;;;5058675;28;19924;-90
2022/12/14 14:51:42;;;;;;;;;;;;;;;;;;5059577;28;19927;-90
2022/12/14 14:54:07;;;;;;;;;;;;;;;;;;5075346;28;19942;-91
2022/12/14 14:56:33;;;;;;;;;;;;;;;;;;5079334;28;19920;-91
2022/12/14 14:58:59;;;;;;;;;;;;;;;;;;5063789;28;20300;-91
2022/12/14 15:01:25;;;;;;;;;;;;;;;;;;5075949;28;19940;-91
2022/12/14 15:03:51;;;;;;;;;;;;;;;;;;5060813;28;19924;-90
2022/12/14 15:06:17;;;;;;;;;;;;;;;;;;5061865;28;19973;-89
2022/12/14 15:08:43;;;;;;;;;;;;;;;;;;5088972;28;20407;-90
2022/12/14 15:11:09;;;;;;;;;;;;;;;;;;5070635;28;19965;-90
2022/12/14 15:13:35;;;;;;;;;;;;;;;;;;5075953;28;19924;-90
2022/12/14 15:16:01;;;;;;;;;;;;;;;;;;5078626;28;19920;-90
2022/12/14 15:18:27;;;;;;;;;;;;;;;;;;5063751;28;19927;-90
2022/12/14 15:20:53;;;;;;;;;;;;;;;;;;5058065;28;19927;-90
2022/12/14 15:23:19;;;;;;;;;;;;;;;;;;5059994;28;19939;-90
2022/12/14 15:25:45;;;;;;;;;;;;;;;;;;5078617;28;20010;-90
2022/12/14 15:28:11;;;;;;;;;;;;;;;;;;5078758;28;19924;-90
2022/12/14 15:30:37;;;;;;;;;;;;;;;;;;5074718;28;19931;-90
2022/12/14 15:33:02;;;;;;;;;;;;;;;;;;5058060;28;19928;-90
2022/12/14 15:35:29;;;;;;;;;;;;;;;;;;5058483;28;19924;-89
2022/12/14 15:37:55;;;;;;;;;;;;;;;;;;5058296;28;20010;-91
2022/12/14 15:40:21;;;;;;;;;;;;;;;;;;5059708;28;19966;-89
2022/12/14 15:42:47;;;;;;;;;;;;;;;;;;5074792;28;19920;-89
2022/12/14 15:45:13;;;;;;;;;;;;;;;;;;5057775;28;19924;-89
2022/12/14 15:47:39;;;;;;;;;;;;;;;;;;5058063;28;19931;-90
2022/12/14 15:50:05;;;;;;;;;;;;;;;;;;5057133;28;19920;-89
2022/12/14 15:52:30;;;;;;;;;;;;;;;;;;5091195;28;19920;-89
2022/12/14 15:54:56;;;;;;;;;;;;;;;;;;5094251;28;19919;-89
2022/12/14 15:57:23;;;;;;;;;;;;;;;;;;5077944;28;19927;-89
2022/12/14 15:59:49;;;;;;;;;;;;;;;;;;5076215;28;19981;-89
2022/12/14 16:02:15;;;;;;;;;;;;;;;;;;5111309;28;19927;-89
2022/12/14 16:04:41;;;;;;;;;;;;;;;;;;5065042;28;19931;-89
2022/12/14 16:07:06;;;;;;;;;;;;;;;;;;5065477;28;20012;-89
2022/12/14 16:09:32;;;;;;;;;;;;;;;;;;5057500;28;20057;-89
2022/12/14 16:11:58;;;;;;;;;;;;;;;;;;5057696;28;19924;-89
2022/12/14 16:14:24;;;;;;;;;;;;;;;;;;5057921;28;19924;-89
2022/12/14 16:16:50;;;;;;;;;;;;;;;;;;5058163;28;20284;-89
2022/12/14 16:19:16;;;;;;;;;;;;;;;;;;5071365;28;19920;-89
2022/12/14 16:21:43;;;;;;;;;;;;;;;;;;5077368;28;20406;-89
2022/12/14 16:24:09;;;;;;;;;;;;;;;;;;5077597;28;20022;-89
2022/12/14 16:26:37;;;;;;;;;;;;;;;;;;5090258;28;19924;-89
2022/12/14 16:29:03;;;;;;;;;;;;;;;;;;5073215;28;19959;-89
2022/12/14 16:31:29;;;;;;;;;;;;;;;;;;5077988;28;20281;-88
2022/12/14 16:33:54;;;;;;;;;;;;;;;;;;5111723;28;19971;-89
2022/12/14 16:36:20;;;;;;;;;;;;;;;;;;5064470;28;19994;-89
2022/12/14 16:38:46;;;;;;;;;;;;;;;;;;5057420;28;19920;-89
2022/12/14 16:41:12;;;;;;;;;;;;;;;;;;5071329;28;19920;-89
2022/12/14 16:43:38;;;;;;;;;;;;;;;;;;5077640;28;19924;-89
2022/12/14 16:46:04;;;;;;;;;;;;;;;;;;5093935;28;19920;-89
2022/12/14 16:48:30;;;;;;;;;;;;;;;;;;5057364;28;19920;-89
2022/12/14 16:50:56;;;;;;;;;;;;;;;;;;5069076;28;20045;-88
2022/12/14 16:53:22;;;;;;;;;;;;;;;;;;5073009;28;20424;-89